createdAt,value
2019-04-14T00:00:01.142Z,1.50
2019-04-14T00:02:33.815Z,1.50
2019-04-14T00:05:02.104Z,1.17
2019-04-14T00:07:30.548Z,1.27
2019-04-14T00:09:58.925Z,1.30
2019-04-14T00:12:27.350Z,1.43
2019-04-14T00:14:55.615Z,1.17
2019-04-14T00:17:24.320Z,1.73
2019-04-14T00:19:52.741Z,1.40
2019-04-14T00:22:21.057Z,1.50
2019-04-14T00:24:49.390Z,1.50
2019-04-14T00:27:17.702Z,1.20
2019-04-14T00:29:46.027Z,1.40
2019-04-14T00:32:14.506Z,1.60
2019-04-14T00:34:59.283Z,1.50
2019-04-14T00:37:38.039Z,1.57
2019-04-14T00:40:10.684Z,1.50
2019-04-14T00:43:15.439Z,1.67
2019-04-14T00:45:52.709Z,1.50
2019-04-14T00:48:20.627Z,1.60
2019-04-14T00:50:47.398Z,1.90
2019-04-14T00:53:16.324Z,2.17
2019-04-14T00:55:44.336Z,1.40
2019-04-14T00:58:12.842Z,2.03
2019-04-14T01:00:41.129Z,1.90
2019-04-14T01:03:09.469Z,1.53
2019-04-14T01:05:39.254Z,1.40
2019-04-14T01:08:07.388Z,1.50
2019-04-14T01:10:35.043Z,1.73
2019-04-14T01:13:03.351Z,1.37
2019-04-14T01:15:46.711Z,2.10
2019-04-14T01:18:01.499Z,1.43
2019-04-14T01:20:29.633Z,1.43
2019-04-14T01:22:57.522Z,1.53
2019-04-14T01:25:26.068Z,1.50
2019-04-14T01:27:54.339Z,1.50
2019-04-14T01:30:24.049Z,1.70
2019-04-14T01:32:52.208Z,1.93
2019-04-14T01:35:20.319Z,1.60
2019-04-14T01:37:48.676Z,1.73
2019-04-14T01:40:16.665Z,1.50
2019-04-14T01:42:46.245Z,1.60
2019-04-14T01:45:14.263Z,1.50
2019-04-14T01:47:42.072Z,1.90
2019-04-14T01:50:10.529Z,1.77
2019-04-14T01:52:45.766Z,1.70
2019-04-14T01:55:33.109Z,1.80
2019-04-14T01:58:10.213Z,1.57
2019-04-14T02:01:42.331Z,2.20
2019-04-14T02:04:11.642Z,1.53
2019-04-14T02:06:39.856Z,2.23
2019-04-14T02:09:09.642Z,1.93
2019-04-14T02:11:37.692Z,1.57
2019-04-14T02:14:06.132Z,1.57
2019-04-14T02:16:40.169Z,1.47
2019-04-14T02:19:02.465Z,1.80
2019-04-14T02:21:30.471Z,1.63
2019-04-14T02:23:58.762Z,1.43
2019-04-14T02:26:28.568Z,1.30
2019-04-14T02:28:57.065Z,1.50
2019-04-14T02:31:48.440Z,2.17
2019-04-14T02:34:25.910Z,1.60
2019-04-14T02:36:45.976Z,1.53
2019-04-14T02:39:20.404Z,1.53
2019-04-14T02:42:00.249Z,1.77
2019-04-14T02:44:16.139Z,1.80
2019-04-14T02:46:46.000Z,1.20
2019-04-14T02:49:04.198Z,2.30
2019-04-14T02:51:35.048Z,1.47
2019-04-14T02:54:10.056Z,1.67
2019-04-14T02:56:36.652Z,1.40
2019-04-14T03:01:31.605Z,1.90
2019-04-14T03:03:58.456Z,1.53
2019-04-14T03:06:26.095Z,1.80
2019-04-14T03:11:25.335Z,1.43
2019-04-14T03:13:58.529Z,1.30
2019-04-14T03:16:35.604Z,1.63
2019-04-14T03:18:59.142Z,1.53
2019-04-14T03:21:55.101Z,1.83
2019-04-14T03:25:15.210Z,1.60
2019-04-14T03:28:00.917Z,1.93
2019-04-14T03:33:32.606Z,1.60
2019-04-14T03:38:11.388Z,1.70
2019-04-14T03:40:27.675Z,1.80
2019-04-14T03:43:06.999Z,2.03
2019-04-14T03:45:32.922Z,1.57
2019-04-14T03:48:15.210Z,1.47
2019-04-14T03:52:56.180Z,1.60
2019-04-14T03:55:10.094Z,1.93
2019-04-14T03:57:20.108Z,1.50
2019-04-14T03:59:49.886Z,1.43
2019-04-14T04:02:18.192Z,1.60
2019-04-14T04:04:46.607Z,1.60
2019-04-14T04:07:14.959Z,2.00
2019-04-14T04:09:47.515Z,1.70
2019-04-14T04:12:16.029Z,1.70
2019-04-14T04:14:44.189Z,1.63
2019-04-14T04:17:23.293Z,1.67
2019-04-14T04:19:57.666Z,1.27
2019-04-14T04:24:37.024Z,1.70
2019-04-14T04:27:13.536Z,1.60
2019-04-14T04:29:46.878Z,1.70
2019-04-14T04:32:23.304Z,1.30
2019-04-14T04:34:55.850Z,1.40
2019-04-14T04:37:30.095Z,1.50
2019-04-14T04:40:00.706Z,1.50
2019-04-14T04:42:28.786Z,1.40
2019-04-14T04:44:57.499Z,1.53
2019-04-14T04:47:25.432Z,1.40
2019-04-14T04:49:53.852Z,1.53
2019-04-14T04:52:22.202Z,1.27
2019-04-14T04:54:51.623Z,1.80
2019-04-14T04:57:19.906Z,1.40
2019-04-14T04:59:47.466Z,1.70
2019-04-14T05:02:15.756Z,1.53
2019-04-14T05:04:44.079Z,1.43
2019-04-14T05:07:12.499Z,1.73
2019-04-14T05:10:48.132Z,1.77
2019-04-14T05:13:20.611Z,1.80
2019-04-14T05:15:53.206Z,1.93
2019-04-14T05:18:22.772Z,1.70
2019-04-14T05:20:51.134Z,1.80
2019-04-14T05:23:19.460Z,1.30
2019-04-14T05:25:47.819Z,1.80
2019-04-14T05:28:17.709Z,1.27
2019-04-14T05:30:45.830Z,1.60
2019-04-14T05:33:14.154Z,1.53
2019-04-14T05:35:42.415Z,1.90
2019-04-14T05:38:10.686Z,1.97
2019-04-14T05:40:38.986Z,1.33
2019-04-14T05:43:07.468Z,1.90
2019-04-14T05:45:35.803Z,1.50
2019-04-14T05:48:05.327Z,1.30
2019-04-14T05:50:33.531Z,1.60
2019-04-14T05:53:02.157Z,1.40
2019-04-14T05:55:30.572Z,1.40
2019-04-14T05:57:59.179Z,1.70
2019-04-14T06:00:27.808Z,1.60
2019-04-14T06:02:55.905Z,1.70
2019-04-14T06:05:25.316Z,1.53
2019-04-14T06:07:55.422Z,1.60
2019-04-14T06:10:21.592Z,1.60
2019-04-14T06:12:49.989Z,1.53
2019-04-14T06:15:18.818Z,1.50
2019-04-14T06:17:47.123Z,1.53
2019-04-14T06:20:15.868Z,1.63
2019-04-14T06:22:44.170Z,1.43
2019-04-14T06:25:13.305Z,1.27
2019-04-14T06:27:41.681Z,1.63
2019-04-14T06:32:20.146Z,1.70
2019-04-14T06:36:58.279Z,1.23
2019-04-14T06:39:29.072Z,1.57
2019-04-14T06:41:57.540Z,1.53
2019-04-14T06:44:25.920Z,1.60
2019-04-14T06:46:54.217Z,1.67
2019-04-14T06:49:22.834Z,1.50
2019-04-14T06:51:51.134Z,1.33
2019-04-14T06:54:19.457Z,1.40
2019-04-14T06:56:47.787Z,1.33
2019-04-14T06:59:16.103Z,2.40
2019-04-14T07:01:44.663Z,1.33
2019-04-14T07:04:13.212Z,1.40
2019-04-14T07:06:41.622Z,1.67
2019-04-14T07:09:10.309Z,1.20
2019-04-14T07:11:38.994Z,1.20
2019-04-14T07:14:07.283Z,1.40
2019-04-14T07:16:35.707Z,1.37
2019-04-14T07:19:04.451Z,1.47
2019-04-14T07:21:32.762Z,1.30
2019-04-14T07:24:01.216Z,1.37
2019-04-14T07:26:29.889Z,1.27
2019-04-14T07:28:58.162Z,1.70
2019-04-14T07:33:39.187Z,1.40
2019-04-14T07:36:11.887Z,1.17
2019-04-14T07:38:46.607Z,1.23
2019-04-14T07:41:24.450Z,1.40
2019-04-14T07:44:04.990Z,1.50
2019-04-14T07:46:37.510Z,1.40
2019-04-14T07:51:12.763Z,1.40
2019-04-14T07:54:21.679Z,1.47
2019-04-14T07:57:02.627Z,1.50
2019-04-14T07:59:36.234Z,1.40
2019-04-14T08:03:12.139Z,1.40
2019-04-14T08:05:41.152Z,1.23
2019-04-14T08:08:09.488Z,1.43
2019-04-14T08:10:37.907Z,1.30
2019-04-14T08:13:06.952Z,1.43
2019-04-14T08:15:35.276Z,1.70
2019-04-14T08:18:03.623Z,1.43
2019-04-14T08:20:32.369Z,1.50
2019-04-14T08:23:00.662Z,1.77
2019-04-14T08:25:29.026Z,1.73
2019-04-14T08:27:57.593Z,1.40
2019-04-14T08:30:26.104Z,1.30
2019-04-14T08:32:54.509Z,1.90
2019-04-14T08:35:22.860Z,1.47
2019-04-14T08:37:51.160Z,1.40
2019-04-14T08:40:19.470Z,1.63
2019-04-14T08:43:25.084Z,1.73
2019-04-14T08:45:57.911Z,1.50
2019-04-14T08:48:31.830Z,1.60
2019-04-14T08:52:02.830Z,1.60
2019-04-14T08:54:42.231Z,1.40
2019-04-14T08:57:15.917Z,1.37
2019-04-14T08:59:49.583Z,1.77
2019-04-14T09:02:23.064Z,1.53
2019-04-14T09:04:56.753Z,1.60
2019-04-14T09:07:33.253Z,1.60
2019-04-14T09:10:05.998Z,1.40
2019-04-14T09:12:36.895Z,1.60
2019-04-14T09:15:05.568Z,1.37
2019-04-14T09:17:33.926Z,1.67
2019-04-14T09:20:02.333Z,1.10
2019-04-14T09:22:30.635Z,1.10
2019-04-14T09:24:58.958Z,1.20
2019-04-14T09:27:27.473Z,1.30
2019-04-14T09:29:55.786Z,1.37
2019-04-14T09:32:24.229Z,1.50
2019-04-14T09:34:52.588Z,1.13
2019-04-14T09:37:21.506Z,1.47
2019-04-14T09:39:49.788Z,1.77
2019-04-14T09:42:18.108Z,1.40
2019-04-14T09:44:46.727Z,1.30
2019-04-14T09:47:15.414Z,1.50
2019-04-14T09:49:44.053Z,1.60
2019-04-14T09:52:12.396Z,1.50
2019-04-14T09:54:40.826Z,1.70
2019-04-14T09:57:09.540Z,1.50
2019-04-14T09:59:38.239Z,1.77
2019-04-14T10:02:06.877Z,1.47
2019-04-14T10:04:35.560Z,1.77
2019-04-14T10:07:04.479Z,1.40
2019-04-14T10:09:32.926Z,1.80
2019-04-14T10:12:01.353Z,1.90
2019-04-14T10:14:29.953Z,1.80
2019-04-14T10:17:01.049Z,1.43
2019-04-14T10:19:26.734Z,1.73
2019-04-14T10:21:55.106Z,1.90
2019-04-14T10:24:23.474Z,1.70
2019-04-14T10:26:52.175Z,1.70
2019-04-14T10:29:20.516Z,1.70
2019-04-14T10:31:48.921Z,1.50
2019-04-14T10:34:17.500Z,1.47
2019-04-14T10:36:45.841Z,1.83
2019-04-14T10:39:14.235Z,1.80
2019-04-14T10:41:42.695Z,1.70
2019-04-14T10:44:11.153Z,1.90
2019-04-14T10:46:39.663Z,1.77
2019-04-14T10:49:08.245Z,1.70
2019-04-14T10:51:37.187Z,2.13
2019-04-14T10:54:05.775Z,2.30
2019-04-14T10:56:34.286Z,1.90
2019-04-14T10:59:02.678Z,2.07
2019-04-14T11:01:31.348Z,2.17
2019-04-14T11:03:59.711Z,1.80
2019-04-14T11:06:35.829Z,2.23
2019-04-14T11:09:05.876Z,2.13
2019-04-14T11:11:34.483Z,2.10
2019-04-14T11:14:02.780Z,1.90
2019-04-14T11:16:31.088Z,1.83
2019-04-14T11:18:59.492Z,1.90
2019-04-14T11:21:27.848Z,1.93
2019-04-14T11:23:56.271Z,2.30
2019-04-14T11:26:24.588Z,2.13
2019-04-14T11:28:53.244Z,2.17
2019-04-14T11:31:26.787Z,1.80
2019-04-14T11:34:00.248Z,1.90
2019-04-14T11:36:32.863Z,1.87
2019-04-14T11:39:05.670Z,2.10
2019-04-14T11:41:34.276Z,1.90
2019-04-14T11:44:02.644Z,2.10
2019-04-14T11:46:31.509Z,1.80
2019-04-14T11:48:59.843Z,2.13
2019-04-14T11:51:28.241Z,2.20
2019-04-14T11:53:56.599Z,2.00
2019-04-14T11:56:25.016Z,1.60
2019-04-14T11:58:53.552Z,1.80
2019-04-14T12:01:27.281Z,1.83
2019-04-14T12:04:02.925Z,1.90
2019-04-14T12:08:40.244Z,2.27
2019-04-14T12:11:08.964Z,2.00
2019-04-14T12:13:37.394Z,2.00
2019-04-14T12:16:05.921Z,1.80
2019-04-14T12:18:34.431Z,1.80
2019-04-14T12:21:03.052Z,2.00
2019-04-14T12:23:32.371Z,1.60
2019-04-14T12:26:05.678Z,1.60
2019-04-14T12:28:29.356Z,2.00
2019-04-14T12:30:57.728Z,1.90
2019-04-14T12:33:26.134Z,2.13
2019-04-14T12:35:54.570Z,2.10
2019-04-14T12:38:22.909Z,2.00
2019-04-14T12:40:52.447Z,1.70
2019-04-14T12:43:26.962Z,1.70
2019-04-14T12:46:00.430Z,1.60
2019-04-14T12:48:34.286Z,2.23
2019-04-14T12:51:08.052Z,2.50
2019-04-14T12:53:36.512Z,1.83
2019-04-14T12:56:04.992Z,2.10
2019-04-14T12:58:37.743Z,1.70
2019-04-14T13:01:09.158Z,2.00
2019-04-14T13:03:41.833Z,1.83
2019-04-14T13:06:07.996Z,2.20
2019-04-14T13:08:36.367Z,1.83
2019-04-14T13:11:04.859Z,2.20
2019-04-14T13:13:33.256Z,1.90
2019-04-14T13:16:01.863Z,1.70
2019-04-14T13:18:30.284Z,1.80
2019-04-14T13:20:58.931Z,2.30
2019-04-14T13:23:27.453Z,1.80
2019-04-14T13:25:55.811Z,2.10
2019-04-14T13:28:24.220Z,2.13
2019-04-14T13:30:52.754Z,2.00
2019-04-14T13:33:21.364Z,2.27
2019-04-14T13:35:49.765Z,1.90
2019-04-14T13:38:18.178Z,2.20
2019-04-14T13:40:46.497Z,2.20
2019-04-14T13:43:15.116Z,2.27
2019-04-14T13:45:43.559Z,2.53
2019-04-14T13:48:12.527Z,1.90
2019-04-14T13:50:41.148Z,4.20
2019-04-14T13:53:09.723Z,2.10
2019-04-14T13:55:38.606Z,1.90
2019-04-14T13:58:06.978Z,2.23
2019-04-14T14:00:35.795Z,2.50
2019-04-14T14:03:04.267Z,2.10
2019-04-14T14:05:32.832Z,1.87
2019-04-14T14:08:01.120Z,2.07
2019-04-14T14:10:29.448Z,2.20
2019-04-14T14:13:03.062Z,1.83
2019-04-14T14:15:52.514Z,1.90
2019-04-14T14:18:27.388Z,2.23
2019-04-14T14:23:03.983Z,2.57
2019-04-14T14:25:36.943Z,1.83
2019-04-14T14:28:05.591Z,2.00
2019-04-14T14:30:33.971Z,1.93
2019-04-14T14:33:02.415Z,2.37
2019-04-14T14:35:30.936Z,2.40
2019-04-14T14:37:59.252Z,1.87
2019-04-14T14:40:27.597Z,2.47
2019-04-14T14:42:56.093Z,2.50
2019-04-14T14:45:57.640Z,2.43
2019-04-14T14:48:31.482Z,2.00
2019-04-14T14:51:04.032Z,1.97
2019-04-14T14:53:32.355Z,2.07
2019-04-14T14:56:00.743Z,2.13
2019-04-14T14:58:29.385Z,2.23
2019-04-14T15:00:57.874Z,2.30
2019-04-14T15:03:26.569Z,1.70
2019-04-14T15:05:56.464Z,1.80
2019-04-14T15:08:25.168Z,2.27
2019-04-14T15:10:53.754Z,2.20
2019-04-14T15:13:22.518Z,2.13
2019-04-14T15:15:50.816Z,2.63
2019-04-14T15:18:19.121Z,2.20
2019-04-14T15:20:47.459Z,2.13
2019-04-14T15:23:24.783Z,2.03
2019-04-14T15:25:44.739Z,2.00
2019-04-14T15:28:15.642Z,2.20
2019-04-14T15:30:41.564Z,1.77
2019-04-14T15:33:10.058Z,2.10
2019-04-14T15:35:38.353Z,1.83
2019-04-14T15:38:06.705Z,2.23
2019-04-14T15:40:35.281Z,1.97
2019-04-14T15:43:03.599Z,2.13
2019-04-14T15:45:32.292Z,2.13
2019-04-14T15:48:00.662Z,2.03
2019-04-14T15:50:29.655Z,2.20
2019-04-14T15:52:58.028Z,2.13
2019-04-14T15:55:26.965Z,1.90
2019-04-14T15:58:02.532Z,2.13
2019-04-14T16:02:40.858Z,1.83
2019-04-14T16:05:17.904Z,2.00
2019-04-14T16:07:50.523Z,2.00
2019-04-14T16:10:25.082Z,2.33
2019-04-14T16:12:58.655Z,2.33
2019-04-14T16:15:32.264Z,2.00
2019-04-14T16:19:03.281Z,1.73
2019-04-14T16:21:31.630Z,1.93
2019-04-14T16:24:00.631Z,2.10
2019-04-14T16:27:01.174Z,2.23
2019-04-14T16:29:34.998Z,2.20
2019-04-14T16:34:11.334Z,1.87
2019-04-14T16:36:39.886Z,2.03
2019-04-14T16:39:08.273Z,2.17
2019-04-14T16:41:36.764Z,2.37
2019-04-14T16:44:05.096Z,1.90
2019-04-14T16:46:33.442Z,1.63
2019-04-14T16:49:01.806Z,1.80
2019-04-14T16:51:34.661Z,1.80
2019-04-14T16:54:07.351Z,2.27
2019-04-14T16:56:44.943Z,1.40
2019-04-14T16:59:15.752Z,1.70
2019-04-14T17:01:47.448Z,1.97
2019-04-14T17:04:15.749Z,1.67
2019-04-14T17:06:44.399Z,1.70
2019-04-14T17:09:12.745Z,2.03
2019-04-14T17:11:41.270Z,2.00
2019-04-14T17:14:14.173Z,1.90
2019-04-14T17:17:47.139Z,1.87
2019-04-14T17:20:23.644Z,1.90
2019-04-14T17:23:05.060Z,1.80
2019-04-14T17:25:36.820Z,1.70
2019-04-14T17:28:10.276Z,2.10
2019-04-14T17:30:45.662Z,1.90
2019-04-14T17:33:24.854Z,1.90
2019-04-14T17:36:02.450Z,2.03
2019-04-14T17:38:37.999Z,1.90
2019-04-14T17:41:12.577Z,1.60
2019-04-14T17:43:47.162Z,1.93
2019-04-14T17:46:35.991Z,2.07
2019-04-14T17:49:11.410Z,2.27
2019-04-14T17:51:43.970Z,2.37
2019-04-14T17:54:29.193Z,1.87
2019-04-14T17:56:56.316Z,1.87
2019-04-14T17:59:29.625Z,1.57
2019-04-14T18:02:06.109Z,1.70
2019-04-14T18:04:41.618Z,2.20
2019-04-14T18:07:20.514Z,1.90
2019-04-14T18:09:53.915Z,2.20
2019-04-14T18:12:30.398Z,2.67
2019-04-14T18:15:04.765Z,2.43
2019-04-14T18:17:45.402Z,2.50
2019-04-14T18:21:16.354Z,2.67
2019-04-14T18:23:44.734Z,2.40
2019-04-14T18:26:13.501Z,3.23
2019-04-14T18:28:47.414Z,2.90
2019-04-14T18:31:20.388Z,3.70
2019-04-14T18:33:56.861Z,5.70
2019-04-14T18:36:32.521Z,9.83
2019-04-14T18:39:05.097Z,13.93
2019-04-14T18:41:42.520Z,13.60
2019-04-14T18:44:22.100Z,12.00
2019-04-14T18:46:55.749Z,7.60
2019-04-14T18:49:29.430Z,6.03
2019-04-14T18:52:04.807Z,4.40
2019-04-14T18:54:38.254Z,4.10
2019-04-14T18:57:12.159Z,4.10
2019-04-14T18:59:48.933Z,3.30
2019-04-14T19:02:19.012Z,3.77
2019-04-14T19:04:47.324Z,3.60
2019-04-14T19:07:16.032Z,3.60
2019-04-14T19:09:44.389Z,3.30
2019-04-14T19:12:17.999Z,3.53
2019-04-14T19:14:46.430Z,3.20
2019-04-14T19:17:33.358Z,3.13
2019-04-14T19:20:02.621Z,4.10
2019-04-14T19:22:30.254Z,3.80
2019-04-14T19:25:08.064Z,3.90
2019-04-14T19:27:27.348Z,4.07
2019-04-14T19:29:55.711Z,3.80
2019-04-14T19:32:24.290Z,3.83
2019-04-14T19:34:52.629Z,4.80
2019-04-14T19:37:21.073Z,4.83
2019-04-14T19:39:49.511Z,4.50
2019-04-14T19:42:17.828Z,3.83
2019-04-14T19:44:46.540Z,3.67
2019-04-14T19:47:14.881Z,3.40
2019-04-14T19:49:43.224Z,3.87
2019-04-14T19:52:11.709Z,3.30
2019-04-14T19:54:40.012Z,3.20
2019-04-14T19:57:08.299Z,2.67
2019-04-14T19:59:36.635Z,3.20
2019-04-14T20:02:05.013Z,3.30
2019-04-14T20:04:33.358Z,2.77
2019-04-14T20:07:01.752Z,3.40
2019-04-14T20:09:30.931Z,3.77
2019-04-14T20:11:58.678Z,2.90
2019-04-14T20:14:27.004Z,3.60
2019-04-14T20:16:59.570Z,3.63
2019-04-14T20:19:34.866Z,4.10
2019-04-14T20:22:12.341Z,3.60
2019-04-14T20:25:00.879Z,3.00
2019-04-14T20:27:37.223Z,3.47
2019-04-14T20:30:09.709Z,3.17
2019-04-14T20:32:39.812Z,3.30
2019-04-14T20:35:08.825Z,3.10
2019-04-14T20:37:37.231Z,3.60
2019-04-14T20:40:05.747Z,3.20
2019-04-14T20:42:34.225Z,3.10
2019-04-14T20:45:02.628Z,3.00
2019-04-14T20:47:31.011Z,3.67
2019-04-14T20:49:59.553Z,3.30
2019-04-14T20:52:28.027Z,3.17
2019-04-14T20:54:56.370Z,2.97
2019-04-14T20:57:24.754Z,2.87
2019-04-14T20:59:53.196Z,3.03
2019-04-14T21:03:30.233Z,2.80
2019-04-14T21:06:07.881Z,3.43
2019-04-14T21:09:11.605Z,3.77
2019-04-14T21:11:58.930Z,3.37
2019-04-14T21:14:31.536Z,3.37
2019-04-14T21:17:06.316Z,3.13
2019-04-14T21:19:39.962Z,3.47
2019-04-14T21:22:12.622Z,3.63
2019-04-14T21:24:46.160Z,3.43
2019-04-14T21:27:21.718Z,4.17
2019-04-14T21:30:21.227Z,3.67
2019-04-14T21:32:53.790Z,3.33
2019-04-14T21:37:29.920Z,3.50
2019-04-14T21:40:05.696Z,3.20
2019-04-14T21:42:34.078Z,3.80
2019-04-14T21:45:02.386Z,3.80
2019-04-14T21:47:30.726Z,3.67
2019-04-14T21:49:59.103Z,3.77
2019-04-14T21:52:49.530Z,3.80
2019-04-14T21:55:15.948Z,4.73
2019-04-14T21:57:49.539Z,4.43
2019-04-14T22:00:33.470Z,4.07
2019-04-14T22:11:36.550Z,4.10
2019-04-14T22:14:05.078Z,4.33
2019-04-14T22:16:33.438Z,4.27
2019-04-14T22:19:01.896Z,4.23
2019-04-14T22:21:30.509Z,3.60
2019-04-14T22:24:01.542Z,3.87
2019-04-14T22:26:27.322Z,4.53
2019-04-14T22:28:56.022Z,3.90
2019-04-14T22:31:24.391Z,3.97
2019-04-14T22:33:52.724Z,4.00
2019-04-14T22:36:21.081Z,3.50
2019-04-14T22:38:49.403Z,4.27
2019-04-14T22:41:17.726Z,3.90
2019-04-14T22:43:46.105Z,4.03
2019-04-14T22:46:14.393Z,4.80
2019-04-14T22:48:42.774Z,4.07
2019-04-14T22:51:11.304Z,4.27
2019-04-14T22:53:40.105Z,4.00
2019-04-14T22:56:08.384Z,4.13
2019-04-14T22:58:36.770Z,4.43
2019-04-14T23:01:21.987Z,3.93
2019-04-14T23:04:00.818Z,4.30
2019-04-14T23:07:07.590Z,4.77
2019-04-14T23:11:44.642Z,4.70
2019-04-14T23:14:18.108Z,4.63
2019-04-14T23:16:51.786Z,4.60
2019-04-14T23:19:24.398Z,4.40
2019-04-14T23:21:56.959Z,4.90
2019-04-14T23:24:28.865Z,4.50
2019-04-14T23:26:57.371Z,4.23
2019-04-14T23:29:25.797Z,4.33
2019-04-14T23:31:54.134Z,5.33
2019-04-14T23:34:22.459Z,4.90
2019-04-14T23:36:51.392Z,4.43
2019-04-14T23:39:19.738Z,4.30
2019-04-14T23:41:48.051Z,4.37
2019-04-14T23:44:16.457Z,4.47
2019-04-14T23:46:44.806Z,4.77
2019-04-14T23:49:13.180Z,5.13
2019-04-14T23:51:41.599Z,4.40
2019-04-14T23:54:10.016Z,5.40
2019-04-14T23:56:38.566Z,4.30
2019-04-14T23:59:06.971Z,4.27
